Time;durP1;ratioP1;P1;durP2;ratioP2;P2;SDS_P1;SDS_P2;PMS_P1;PMS_P2;Temp;Humidity;BMP_temperature;BMP_pressure;BME280_temperature;BME280_humidity;BME280_pressure;Samples;Min_cycle;Max_cycle;Signal;HPM_P1;HPM_P2
2023/05/28 00:01:24;;;;;;;19.20;6.70;;;13.70;99.90;;;;;;5045424;28;20209;-70
2023/05/28 00:03:50;;;;;;;18.83;6.53;;;13.70;99.90;;;;;;5051149;28;20225;-71
2023/05/28 00:06:17;;;;;;;19.57;7.07;;;13.70;99.90;;;;;;5051799;28;20200;-71
2023/05/28 00:08:44;;;;;;;19.43;7.93;;;13.60;99.90;;;;;;5046914;28;20213;-72
2023/05/28 00:11:11;;;;;;;15.97;6.67;;;13.60;99.90;;;;;;5049757;28;20211;-71
2023/05/28 00:13:38;;;;;;;19.90;6.17;;;13.50;99.90;;;;;;5049373;28;20657;-71
2023/05/28 00:16:05;;;;;;;16.87;6.93;;;13.50;99.90;;;;;;5046927;28;20270;-71
2023/05/28 00:18:32;;;;;;;16.47;6.47;;;13.40;99.90;;;;;;5043140;28;20200;-72
2023/05/28 00:21:00;;;;;;;15.03;6.17;;;13.40;99.90;;;;;;5048564;28;20202;-71
2023/05/28 00:23:27;;;;;;;12.80;6.20;;;13.30;99.90;;;;;;5050829;28;20208;-71
2023/05/28 00:25:54;;;;;;;18.33;6.70;;;13.30;99.90;;;;;;5050559;28;20209;-72
2023/05/28 00:28:21;;;;;;;19.47;7.30;;;13.30;99.90;;;;;;5046939;28;20242;-72
2023/05/28 00:30:49;;;;;;;17.53;7.57;;;13.30;99.90;;;;;;5049058;28;20216;-71
2023/05/28 00:33:15;;;;;;;14.83;6.90;;;13.20;99.90;;;;;;5029986;28;20270;-72
2023/05/28 00:35:42;;;;;;;24.50;6.90;;;13.20;99.90;;;;;;5047309;28;20661;-71
2023/05/28 00:38:09;;;;;;;17.40;7.20;;;13.10;99.90;;;;;;5047393;28;20201;-71
2023/05/28 00:40:35;;;;;;;20.73;7.23;;;13.10;99.90;;;;;;5047101;28;20208;-72
2023/05/28 00:43:02;;;;;;;15.93;7.13;;;13.00;99.90;;;;;;5045093;28;20716;-73
2023/05/28 00:45:30;;;;;;;16.47;6.37;;;13.00;99.90;;;;;;5033001;28;20339;-71
2023/05/28 00:47:57;;;;;;;22.63;7.47;;;13.00;99.90;;;;;;5046700;28;20644;-71
2023/05/28 00:50:25;;;;;;;21.10;7.33;;;12.90;99.90;;;;;;5044466;28;20208;-71
2023/05/28 00:52:52;;;;;;;13.63;7.00;;;12.90;99.90;;;;;;5041269;28;20598;-72
2023/05/28 00:55:21;;;;;;;15.60;6.37;;;12.80;99.90;;;;;;5042202;28;20209;-72
2023/05/28 00:57:49;;;;;;;18.97;6.40;;;12.80;99.90;;;;;;5049675;28;20243;-72
2023/05/28 01:00:16;;;;;;;15.50;7.53;;;12.80;99.90;;;;;;5049899;28;20647;-70
2023/05/28 01:02:44;;;;;;;19.80;7.30;;;12.70;99.90;;;;;;5042256;28;20269;-71
2023/05/28 01:05:10;;;;;;;18.27;6.67;;;12.60;99.90;;;;;;5046258;28;20189;-71
2023/05/28 01:07:38;;;;;;;22.70;7.73;;;12.60;99.90;;;;;;5032665;28;20245;-70
2023/05/28 01:10:05;;;;;;;21.30;6.70;;;12.60;99.90;;;;;;5049516;28;20234;-70
2023/05/28 01:12:34;;;;;;;16.67;6.60;;;12.50;99.90;;;;;;5049323;28;20297;-71
2023/05/28 01:15:01;;;;;;;19.87;6.40;;;12.50;99.90;;;;;;5045569;28;20247;-73
2023/05/28 01:17:28;;;;;;;14.43;7.17;;;12.40;99.90;;;;;;5042473;28;20244;-71
2023/05/28 01:19:55;;;;;;;16.60;6.87;;;12.50;99.90;;;;;;5046309;28;20846;-71
2023/05/28 01:22:28;;;;;;;18.50;7.17;;;12.40;99.90;;;;;;5050259;28;20215;-70
2023/05/28 01:24:56;;;;;;;26.30;7.30;;;12.40;99.90;;;;;;5048483;28;20238;-71
2023/05/28 01:27:23;;;;;;;18.70;7.20;;;12.40;99.90;;;;;;5047655;28;20259;-72
2023/05/28 01:29:50;;;;;;;15.27;6.80;;;12.40;99.90;;;;;;5049454;28;20648;-71
2023/05/28 01:32:16;;;;;;;20.03;7.50;;;12.30;99.90;;;;;;5046113;28;20270;-72
2023/05/28 01:34:43;;;;;;;19.57;7.73;;;12.30;99.90;;;;;;5049631;28;21709;-71
2023/05/28 01:37:11;;;;;;;20.67;7.73;;;12.30;99.90;;;;;;5032728;28;20201;-71
2023/05/28 01:39:43;;;;;;;15.30;6.60;;;12.30;99.90;;;;;;5050144;28;20210;-70
2023/05/28 01:42:11;;;;;;;16.27;6.33;;;12.30;99.90;;;;;;5040948;28;20257;-71
2023/05/28 01:44:41;;;;;;;17.47;6.67;;;12.30;99.90;;;;;;5042420;28;20723;-72
2023/05/28 01:47:09;;;;;;;19.60;7.33;;;12.20;99.90;;;;;;5048398;28;20234;-71
2023/05/28 01:49:38;;;;;;;19.87;7.37;;;12.20;99.90;;;;;;5044522;28;20214;-71
2023/05/28 01:52:06;;;;;;;18.67;6.97;;;12.20;99.90;;;;;;5044960;28;20938;-71
2023/05/28 01:54:34;;;;;;;18.70;7.70;;;12.20;99.90;;;;;;5044037;28;20205;-71
2023/05/28 01:57:01;;;;;;;19.90;7.20;;;12.20;99.90;;;;;;5043597;28;20218;-71
2023/05/28 01:59:29;;;;;;;19.70;7.43;;;12.20;99.90;;;;;;5048251;28;20707;-72
2023/05/28 02:01:56;;;;;;;15.30;6.73;;;12.10;99.90;;;;;;5048172;28;20412;-72
2023/05/28 02:04:23;;;;;;;20.70;7.43;;;12.10;99.90;;;;;;5049323;28;20205;-72
2023/05/28 02:06:50;;;;;;;17.47;7.00;;;12.10;99.90;;;;;;5048880;28;20550;-72
2023/05/28 02:09:17;;;;;;;16.80;7.30;;;12.00;99.90;;;;;;5045212;28;20217;-72
2023/05/28 02:11:44;;;;;;;17.47;7.13;;;12.00;99.90;;;;;;5049229;28;20713;-72
2023/05/28 02:14:14;;;;;;;18.20;7.40;;;11.90;99.90;;;;;;5046290;28;20313;-70
2023/05/28 02:16:42;;;;;;;20.30;6.80;;;11.80;99.90;;;;;;5044307;28;20321;-73
2023/05/28 02:19:11;;;;;;;18.00;6.63;;;11.80;99.90;;;;;;5044948;28;20215;-71
2023/05/28 02:21:38;;;;;;;20.63;7.40;;;11.80;99.90;;;;;;5023337;28;20235;-70
2023/05/28 02:24:05;;;;;;;20.63;6.90;;;11.70;99.90;;;;;;5028181;28;20230;-71
2023/05/28 02:26:32;;;;;;;16.20;7.00;;;11.70;99.90;;;;;;5047817;28;20213;-72
2023/05/28 02:28:59;;;;;;;17.83;7.23;;;11.70;99.90;;;;;;5038648;28;20234;-70
2023/05/28 02:31:26;;;;;;;17.93;7.00;;;11.70;99.90;;;;;;5045169;28;20356;-73
2023/05/28 02:33:53;;;;;;;20.27;6.97;;;11.70;99.90;;;;;;5055601;28;20210;-70
2023/05/28 02:36:20;;;;;;;17.10;7.33;;;11.60;99.90;;;;;;5049094;28;20248;-71
2023/05/28 02:38:47;;;;;;;22.33;7.83;;;11.60;99.90;;;;;;5049074;28;20245;-71
2023/05/28 02:41:14;;;;;;;17.90;7.70;;;11.60;99.90;;;;;;5055931;28;20211;-72
2023/05/28 02:43:41;;;;;;;17.00;7.63;;;11.60;99.90;;;;;;5050546;28;20313;-70
2023/05/28 02:46:07;;;;;;;15.07;6.87;;;11.50;99.90;;;;;;5052002;28;20279;-71
2023/05/28 02:48:34;;;;;;;17.30;6.43;;;11.50;99.90;;;;;;5050284;28;20332;-72
2023/05/28 02:51:01;;;;;;;21.23;6.73;;;11.50;99.90;;;;;;5051546;28;20577;-71
2023/05/28 02:53:31;;;;;;;19.53;7.13;;;11.50;99.90;;;;;;5051115;28;20256;-71
2023/05/28 02:55:58;;;;;;;17.43;7.00;;;11.50;99.90;;;;;;5036223;28;20236;-72
2023/05/28 02:58:24;;;;;;;19.43;8.00;;;11.40;99.90;;;;;;5054937;28;20213;-71
2023/05/28 03:00:51;;;;;;;18.47;7.40;;;11.40;99.90;;;;;;5053963;28;20221;-72
2023/05/28 03:03:18;;;;;;;20.00;7.50;;;11.40;99.90;;;;;;5051606;28;20683;-72
2023/05/28 03:05:45;;;;;;;18.73;7.73;;;11.40;99.90;;;;;;5049195;28;20202;-71
2023/05/28 03:08:12;;;;;;;13.73;6.60;;;11.40;99.90;;;;;;5049588;28;20230;-72
2023/05/28 03:10:39;;;;;;;20.20;7.73;;;11.40;99.90;;;;;;5049603;28;20207;-74
2023/05/28 03:13:06;;;;;;;16.77;7.13;;;11.40;99.90;;;;;;5030412;28;20660;-70
2023/05/28 03:15:33;;;;;;;18.00;7.47;;;11.40;99.90;;;;;;5044388;28;20619;-71
2023/05/28 03:18:00;;;;;;;17.10;7.23;;;11.50;99.90;;;;;;5055055;28;20249;-72
2023/05/28 03:20:28;;;;;;;17.97;7.87;;;11.50;99.90;;;;;;5049213;28;20716;-71
2023/05/28 03:22:56;;;;;;;20.73;7.33;;;11.50;99.90;;;;;;5053418;28;20238;-72
2023/05/28 03:25:25;;;;;;;19.00;7.27;;;11.60;99.90;;;;;;5053753;28;20674;-70
2023/05/28 03:27:54;;;;;;;15.83;7.17;;;11.60;99.90;;;;;;5049376;28;20253;-71
2023/05/28 03:30:23;;;;;;;20.90;7.37;;;11.60;99.90;;;;;;5037333;28;20197;-71
2023/05/28 03:32:50;;;;;;;19.67;7.63;;;11.60;99.90;;;;;;5055432;28;20227;-71
2023/05/28 03:35:17;;;;;;;21.70;7.80;;;11.70;99.90;;;;;;5052972;28;20250;-71
2023/05/28 03:37:44;;;;;;;21.53;7.67;;;11.70;99.90;;;;;;5054797;28;20703;-72
2023/05/28 03:40:11;;;;;;;17.03;7.43;;;11.60;99.90;;;;;;5055569;28;20210;-71
2023/05/28 03:42:39;;;;;;;15.90;7.83;;;11.70;99.90;;;;;;5050783;28;20206;-70
2023/05/28 03:45:07;;;;;;;17.87;7.57;;;11.70;99.90;;;;;;5043947;28;20490;-70
2023/05/28 03:47:35;;;;;;;20.90;8.03;;;11.70;99.90;;;;;;5051987;28;20294;-71
2023/05/28 03:50:04;;;;;;;19.73;7.83;;;11.70;99.90;;;;;;5050453;28;20216;-71
2023/05/28 03:52:31;;;;;;;17.50;7.20;;;11.70;99.90;;;;;;5033851;28;20601;-71
2023/05/28 03:54:58;;;;;;;21.33;7.73;;;11.70;99.90;;;;;;5052176;28;20566;-71
2023/05/28 03:57:24;;;;;;;17.90;6.97;;;11.70;99.90;;;;;;5032983;28;20211;-71
2023/05/28 03:59:52;;;;;;;18.20;7.57;;;11.70;99.90;;;;;;5046738;28;20214;-72
2023/05/28 04:02:19;;;;;;;14.77;7.50;;;11.70;99.90;;;;;;5043800;28;20221;-71
2023/05/28 04:04:47;;;;;;;19.83;7.90;;;11.70;99.90;;;;;;5046346;28;20205;-71
2023/05/28 04:07:13;;;;;;;17.50;7.30;;;11.70;99.90;;;;;;5045851;28;20199;-72
2023/05/28 04:09:40;;;;;;;23.40;7.80;;;11.70;99.90;;;;;;5050874;28;20203;-71
2023/05/28 04:12:08;;;;;;;13.53;6.83;;;11.60;99.90;;;;;;5050862;28;20671;-70
2023/05/28 04:14:35;;;;;;;15.63;6.97;;;11.60;99.90;;;;;;5051723;28;20225;-71
2023/05/28 04:17:03;;;;;;;15.07;7.37;;;11.60;99.90;;;;;;5051153;28;20262;-72
2023/05/28 04:19:30;;;;;;;17.73;7.53;;;11.70;99.90;;;;;;5045537;28;20242;-71
2023/05/28 04:21:57;;;;;;;13.53;7.20;;;11.60;99.90;;;;;;5048528;28;20576;-71
2023/05/28 04:24:24;;;;;;;17.37;7.90;;;11.70;99.90;;;;;;5045981;28;20253;-72
2023/05/28 04:26:51;;;;;;;19.80;7.57;;;11.80;99.90;;;;;;5049482;28;20199;-71
2023/05/28 04:29:18;;;;;;;16.40;7.23;;;11.80;99.90;;;;;;5039903;28;20707;-71
2023/05/28 04:31:47;;;;;;;19.10;7.17;;;11.90;99.90;;;;;;5051439;28;20206;-71
2023/05/28 04:34:16;;;;;;;14.77;7.43;;;12.00;99.90;;;;;;5042899;28;20655;-71
2023/05/28 04:36:43;;;;;;;19.90;8.17;;;12.10;99.90;;;;;;5048568;28;20236;-71
2023/05/28 04:39:11;;;;;;;15.47;6.93;;;12.20;99.90;;;;;;5046281;28;20208;-72
2023/05/28 04:41:38;;;;;;;19.87;7.63;;;12.30;99.90;;;;;;5051550;28;20210;-72
2023/05/28 04:44:05;;;;;;;16.63;6.93;;;12.30;99.90;;;;;;5050722;28;20253;-71
2023/05/28 04:46:33;;;;;;;18.17;6.70;;;12.40;99.90;;;;;;5051140;28;20280;-72
2023/05/28 04:49:00;;;;;;;14.73;6.30;;;12.50;99.90;;;;;;5043485;28;20248;-72
2023/05/28 04:51:27;;;;;;;17.37;7.63;;;12.60;99.90;;;;;;5046534;28;20203;-71
2023/05/28 04:53:53;;;;;;;17.67;6.80;;;12.60;99.90;;;;;;5039863;28;20258;-70
2023/05/28 04:56:20;;;;;;;14.40;6.80;;;12.60;99.90;;;;;;5050217;28;20211;-70
2023/05/28 04:58:47;;;;;;;19.20;7.20;;;12.70;99.90;;;;;;5027056;28;20271;-71
2023/05/28 05:01:15;;;;;;;19.47;7.40;;;12.80;99.90;;;;;;5044659;28;20232;-74
2023/05/28 05:03:42;;;;;;;16.57;7.27;;;12.90;99.90;;;;;;5047564;28;20200;-72
2023/05/28 05:06:09;;;;;;;15.77;6.93;;;12.90;99.90;;;;;;5046490;28;20549;-72
2023/05/28 05:08:36;;;;;;;15.70;6.97;;;13.00;99.90;;;;;;5026995;28;21474;-72
2023/05/28 05:11:04;;;;;;;13.77;7.07;;;13.00;99.90;;;;;;5049616;28;20212;-71
2023/05/28 05:13:31;;;;;;;16.30;7.03;;;13.10;99.90;;;;;;5048350;28;20573;-71
2023/05/28 05:15:58;;;;;;;20.17;7.03;;;13.10;99.90;;;;;;5050356;28;20239;-71
2023/05/28 05:18:25;;;;;;;14.40;6.80;;;13.20;99.90;;;;;;5009632;28;20697;-71
2023/05/28 05:20:52;;;;;;;16.43;6.87;;;13.20;99.90;;;;;;5017540;28;20199;-73
2023/05/28 05:23:19;;;;;;;13.87;7.10;;;13.30;99.90;;;;;;5005665;28;20226;-72
2023/05/28 05:25:46;;;;;;;15.70;6.27;;;13.30;99.90;;;;;;5007974;28;20252;-71
2023/05/28 05:28:13;;;;;;;17.67;6.97;;;13.30;99.90;;;;;;5008293;28;20227;-71
2023/05/28 05:30:40;;;;;;;22.70;7.03;;;13.20;99.90;;;;;;5006771;28;20265;-72
2023/05/28 05:33:07;;;;;;;14.07;6.83;;;13.30;99.90;;;;;;5019747;28;20210;-71
2023/05/28 05:35:34;;;;;;;18.77;7.23;;;13.20;99.90;;;;;;5004973;28;20245;-71
2023/05/28 05:38:00;;;;;;;13.70;6.60;;;13.30;99.90;;;;;;5009191;28;20213;-71
2023/05/28 05:40:28;;;;;;;16.33;7.67;;;13.30;99.90;;;;;;5006047;28;20736;-72
2023/05/28 05:42:54;;;;;;;15.77;7.50;;;13.30;99.90;;;;;;5007972;28;20243;-72
2023/05/28 05:45:21;;;;;;;15.03;6.43;;;13.30;99.90;;;;;;5006281;28;20230;-74
2023/05/28 05:47:48;;;;;;;13.30;6.93;;;13.60;99.90;;;;;;5008460;28;20215;-72
2023/05/28 05:50:15;;;;;;;16.90;6.60;;;14.30;99.90;;;;;;5003156;28;20206;-72
2023/05/28 05:52:42;;;;;;;14.27;6.07;;;15.30;99.90;;;;;;5008932;28;20207;-71
2023/05/28 05:55:09;;;;;;;11.38;5.78;;;16.30;99.90;;;;;;5005730;28;20211;-71
2023/05/28 05:57:36;;;;;;;14.48;5.75;;;17.30;99.90;;;;;;5007780;28;20655;-71
2023/05/28 06:00:06;;;;;;;12.27;5.60;;;18.20;99.90;;;;;;5008295;28;20198;-72
2023/05/28 06:02:33;;;;;;;12.68;6.00;;;19.00;99.90;;;;;;5008367;28;20210;-73
2023/05/28 06:05:00;;;;;;;16.98;6.30;;;19.70;99.90;;;;;;5008823;28;20206;-72
2023/05/28 06:07:27;;;;;;;12.70;5.68;;;20.20;99.90;;;;;;5002076;28;20610;-72
2023/05/28 06:09:54;;;;;;;11.32;5.80;;;20.70;99.90;;;;;;4999919;28;20237;-72
2023/05/28 06:12:21;;;;;;;11.65;5.72;;;21.30;99.90;;;;;;5005253;28;20713;-71
2023/05/28 06:14:49;;;;;;;11.52;5.57;;;21.80;99.90;;;;;;5004193;28;20206;-71
2023/05/28 06:17:16;;;;;;;12.75;5.90;;;22.20;99.90;;;;;;5025453;28;20290;-71
2023/05/28 06:19:42;;;;;;;13.93;6.10;;;22.60;99.90;;;;;;5036423;28;20202;-72
2023/05/28 06:22:10;;;;;;;13.20;5.65;;;23.00;99.90;;;;;;5044994;28;20210;-73
2023/05/28 06:24:39;;;;;;;13.75;5.43;;;23.50;99.90;;;;;;5043550;28;21233;-73
2023/05/28 06:27:06;;;;;;;16.77;6.20;;;23.90;99.90;;;;;;5047860;28;20616;-72
2023/05/28 06:29:33;;;;;;;12.35;6.30;;;24.40;99.90;;;;;;5045651;28;20282;-72
2023/05/28 06:32:00;;;;;;;13.63;6.07;;;24.80;99.90;;;;;;5045098;28;20760;-71
2023/05/28 06:34:27;;;;;;;18.23;6.50;;;25.00;99.90;;;;;;5044748;28;20609;-73
2023/05/28 06:36:54;;;;;;;15.70;6.20;;;25.10;99.90;;;;;;5045569;28;20205;-71
2023/05/28 06:39:21;;;;;;;12.13;5.35;;;25.30;99.90;;;;;;5043401;28;20639;-72
2023/05/28 06:41:48;;;;;;;14.80;5.80;;;25.40;99.90;;;;;;5046912;28;20202;-74
2023/05/28 06:44:15;;;;;;;12.02;6.63;;;25.20;99.90;;;;;;5044810;28;20219;-72
2023/05/28 06:46:43;;;;;;;12.65;5.63;;;25.10;99.90;;;;;;5048196;28;20525;-72
2023/05/28 06:49:09;;;;;;;11.82;6.00;;;25.10;99.90;;;;;;5027133;28;20644;-74
2023/05/28 06:51:37;;;;;;;14.40;6.20;;;25.10;99.90;;;;;;5048357;28;20556;-74
2023/05/28 06:54:04;;;;;;;12.45;5.78;;;24.70;99.90;;;;;;5046904;28;20255;-75
2023/05/28 06:56:31;;;;;;;12.32;6.05;;;24.80;99.90;;;;;;5046021;28;20209;-73
2023/05/28 06:58:57;;;;;;;11.40;5.90;;;24.90;99.90;;;;;;5050180;28;20190;-71
2023/05/28 07:01:24;;;;;;;11.75;6.05;;;24.90;99.90;;;;;;5046765;28;20213;-73
2023/05/28 07:03:51;;;;;;;15.20;6.65;;;25.10;99.90;;;;;;5041545;28;20201;-74
2023/05/28 07:06:18;;;;;;;15.70;6.50;;;25.30;99.90;;;;;;5029310;28;20228;-74
2023/05/28 07:08:45;;;;;;;15.45;6.28;;;25.50;99.90;;;;;;5042809;28;20677;-72
2023/05/28 07:11:12;;;;;;;14.98;5.82;;;25.50;99.90;;;;;;5043597;28;20193;-73
2023/05/28 07:13:40;;;;;;;11.80;6.10;;;25.50;99.90;;;;;;5039450;28;20202;-74
2023/05/28 07:16:07;;;;;;;12.52;5.70;;;25.60;99.90;;;;;;5043578;28;20652;-73
2023/05/28 07:18:34;;;;;;;16.23;6.40;;;25.60;99.90;;;;;;5049355;28;20205;-73
2023/05/28 07:21:01;;;;;;;11.20;6.05;;;25.40;99.90;;;;;;5049205;28;20276;-73
2023/05/28 07:23:29;;;;;;;13.75;7.00;;;25.30;99.90;;;;;;5053696;28;20201;-74
2023/05/28 07:25:55;;;;;;;11.95;6.55;;;25.10;99.90;;;;;;5048541;28;20197;-73
2023/05/28 07:28:22;;;;;;;17.33;6.65;;;24.90;99.90;;;;;;5033703;28;20591;-73
2023/05/28 07:30:49;;;;;;;13.88;6.28;;;24.90;99.90;;;;;;5050732;28;20236;-74
2023/05/28 07:33:16;;;;;;;14.18;6.45;;;24.90;99.90;;;;;;5047707;28;20568;-73
2023/05/28 07:35:43;;;;;;;15.13;6.38;;;25.10;99.90;;;;;;5050534;28;20209;-73
2023/05/28 07:38:12;;;;;;;14.48;6.47;;;25.20;99.90;;;;;;5046036;28;20201;-74
2023/05/28 07:40:39;;;;;;;14.55;7.00;;;25.30;99.90;;;;;;5045526;28;20209;-74
2023/05/28 07:43:06;;;;;;;13.38;6.75;;;25.10;99.90;;;;;;5048383;28;20204;-73
2023/05/28 07:45:33;;;;;;;17.58;6.93;;;25.10;99.90;;;;;;5042385;28;20251;-73
2023/05/28 07:48:00;;;;;;;12.20;6.97;;;24.60;99.90;;;;;;5048148;28;20208;-73
2023/05/28 07:50:28;;;;;;;14.95;6.60;;;24.00;99.90;;;;;;5052376;28;20425;-72
2023/05/28 07:52:55;;;;;;;15.45;6.50;;;23.60;99.90;;;;;;5047691;28;20580;-72
2023/05/28 07:55:22;;;;;;;11.77;6.65;;;23.80;99.90;;;;;;5047290;28;20745;-72
2023/05/28 07:57:49;;;;;;;16.92;6.07;;;23.90;99.90;;;;;;5049631;28;20696;-73
2023/05/28 08:00:16;;;;;;;14.93;6.38;;;24.20;99.90;;;;;;5050019;28;20569;-72
2023/05/28 08:02:43;;;;;;;16.98;6.13;;;24.60;99.90;;;;;;5048899;28;20247;-72
2023/05/28 08:05:14;;;;;;;13.68;5.80;;;24.90;99.90;;;;;;5047914;28;20197;-73
2023/05/28 08:07:41;;;;;;;17.13;7.25;;;25.20;99.90;;;;;;5046635;28;20562;-72
2023/05/28 08:10:08;;;;;;;14.50;5.80;;;25.20;99.90;;;;;;5050030;28;20632;-71
2023/05/28 08:12:35;;;;;;;11.20;5.93;;;25.00;99.90;;;;;;5046681;28;20201;-73
2023/05/28 08:15:02;;;;;;;10.20;6.10;;;24.80;99.90;;;;;;5048262;28;20209;-73
2023/05/28 08:17:34;;;;;;;13.13;6.57;;;24.80;99.90;;;;;;5050803;28;20240;-73
2023/05/28 08:20:01;;;;;;;13.80;6.53;;;25.00;99.90;;;;;;5045191;28;20236;-72
2023/05/28 08:22:31;;;;;;;12.27;6.07;;;25.10;99.90;;;;;;5046238;28;20220;-73
2023/05/28 08:24:59;;;;;;;14.02;6.25;;;25.30;99.90;;;;;;5046518;28;20209;-73
2023/05/28 08:27:26;;;;;;;13.85;6.45;;;25.40;99.90;;;;;;5047699;28;20210;-73
2023/05/28 08:29:53;;;;;;;13.07;6.22;;;25.30;99.90;;;;;;5049797;28;20229;-71
2023/05/28 08:32:21;;;;;;;13.48;6.00;;;25.10;99.90;;;;;;5051047;28;20586;-73
2023/05/28 08:34:48;;;;;;;16.30;6.70;;;25.00;99.90;;;;;;5050776;28;20216;-72
2023/05/28 08:37:15;;;;;;;13.75;6.38;;;25.00;99.90;;;;;;5046853;28;20204;-71
2023/05/28 08:39:41;;;;;;;15.68;6.35;;;25.20;99.90;;;;;;5048205;28;20225;-72
2023/05/28 08:42:08;;;;;;;14.43;6.72;;;25.30;99.90;;;;;;5028844;28;20205;-74
2023/05/28 08:44:35;;;;;;;12.10;5.75;;;25.40;99.90;;;;;;5044738;28;20206;-73
2023/05/28 08:47:03;;;;;;;13.68;6.05;;;25.50;99.90;;;;;;5032638;28;20213;-73
2023/05/28 08:49:35;;;;;;;14.98;6.30;;;25.60;99.90;;;;;;5042666;28;20260;-73
2023/05/28 08:52:02;;;;;;;17.33;6.55;;;25.80;99.90;;;;;;5049699;28;20308;-72
2023/05/28 08:54:30;;;;;;;13.23;7.10;;;26.00;99.90;;;;;;5047017;28;20530;-72
2023/05/28 08:56:56;;;;;;;11.90;6.22;;;26.20;99.90;;;;;;5050369;28;20297;-73
2023/05/28 08:59:27;;;;;;;12.55;6.50;;;26.30;99.90;;;;;;5050706;28;20209;-73
2023/05/28 09:01:55;;;;;;;13.68;6.10;;;26.40;99.90;;;;;;5047719;28;20313;-73
2023/05/28 09:04:22;;;;;;;14.13;6.93;;;26.10;99.90;;;;;;5049974;28;20232;-72
2023/05/28 09:06:51;;;;;;;16.98;5.68;;;26.00;99.90;;;;;;5050279;28;20231;-73
2023/05/28 09:09:18;;;;;;;15.20;6.50;;;25.80;99.90;;;;;;5040835;28;20311;-72
2023/05/28 09:11:45;;;;;;;13.38;6.32;;;25.80;99.90;;;;;;5048326;28;20569;-74
2023/05/28 09:14:16;;;;;;;13.43;6.15;;;25.60;99.90;;;;;;5049390;28;20208;-74
2023/05/28 09:16:44;;;;;;;15.73;6.68;;;25.70;99.90;;;;;;5029464;28;20246;-74
2023/05/28 09:19:15;;;;;;;14.50;6.60;;;25.80;99.90;;;;;;5049119;28;20209;-72
2023/05/28 09:21:57;;;;;;;11.73;6.35;;;26.00;99.90;;;;;;5045283;28;20216;-72
2023/05/28 09:24:27;;;;;;;13.65;6.30;;;26.10;99.90;;;;;;5022162;28;20202;-73
2023/05/28 09:26:55;;;;;;;14.85;6.45;;;26.10;99.90;;;;;;5048269;28;20201;-73
2023/05/28 09:29:23;;;;;;;15.48;6.03;;;26.00;99.90;;;;;;5049967;28;20229;-74
2023/05/28 09:31:58;;;;;;;14.77;5.88;;;25.80;99.90;;;;;;5049555;28;20228;-72
2023/05/28 09:34:26;;;;;;;14.25;6.53;;;25.60;99.90;;;;;;5050053;28;20239;-74
2023/05/28 09:36:58;;;;;;;11.48;6.07;;;25.70;99.90;;;;;;5045105;28;20205;-73
2023/05/28 09:39:26;;;;;;;14.32;6.15;;;25.70;99.90;;;;;;5050126;28;20212;-73
2023/05/28 09:42:03;;;;;;;17.48;6.47;;;25.70;99.90;;;;;;5047568;28;20609;-75
2023/05/28 09:44:31;;;;;;;12.45;6.07;;;25.80;99.90;;;;;;5044362;28;20688;-73
2023/05/28 09:46:58;;;;;;;13.10;5.45;;;25.70;99.90;;;;;;5046072;28;20600;-73
2023/05/28 09:49:29;;;;;;;15.93;4.82;;;25.80;99.90;;;;;;5049544;28;20660;-74
2023/05/28 09:51:59;;;;;;;10.23;5.40;;;25.70;99.90;;;;;;5045096;28;20227;-73
2023/05/28 09:54:31;;;;;;;9.70;5.30;;;25.70;99.90;;;;;;5045547;28;20217;-73
2023/05/28 09:57:02;;;;;;;10.68;4.72;;;25.60;99.90;;;;;;5045027;28;20201;-73
2023/05/28 09:59:31;;;;;;;12.20;4.65;;;25.70;99.90;;;;;;5048644;28;20201;-73
2023/05/28 10:02:24;;;;;;;10.88;5.00;;;25.70;99.90;;;;;;5043364;28;20214;-75
2023/05/28 10:04:56;;;;;;;11.13;5.32;;;25.80;99.90;;;;;;5025478;28;20212;-74
2023/05/28 10:07:27;;;;;;;11.13;4.40;;;25.70;99.90;;;;;;5045454;28;20668;-73
2023/05/28 10:09:57;;;;;;;8.95;4.18;;;25.60;99.90;;;;;;5042438;28;20694;-72
2023/05/28 10:12:28;;;;;;;10.68;4.20;;;25.40;99.90;;;;;;5045441;28;20205;-73
2023/05/28 10:14:55;;;;;;;13.13;4.30;;;25.40;99.90;;;;;;5044849;28;20301;-73
2023/05/28 10:17:22;;;;;;;11.57;4.65;;;25.50;99.90;;;;;;5047855;28;20660;-73
2023/05/28 10:19:50;;;;;;;8.50;4.63;;;25.70;99.90;;;;;;5044360;28;20206;-73
2023/05/28 10:22:17;;;;;;;11.40;4.80;;;25.80;99.90;;;;;;5044767;28;20224;-72
2023/05/28 10:24:44;;;;;;;12.52;5.03;;;26.00;99.90;;;;;;5044364;28;20207;-73
2023/05/28 10:27:15;;;;;;;9.00;4.13;;;26.20;99.90;;;;;;5045007;28;20212;-74
2023/05/28 10:29:44;;;;;;;12.77;4.45;;;26.20;99.90;;;;;;5045098;28;20315;-73
2023/05/28 10:32:17;;;;;;;10.63;4.82;;;26.20;99.90;;;;;;5030678;28;20228;-74
2023/05/28 10:34:44;;;;;;;11.50;5.07;;;26.30;99.90;;;;;;5046706;28;20208;-72
2023/05/28 10:37:13;;;;;;;8.00;4.55;;;26.40;99.90;;;;;;5036479;28;20671;-72
2023/05/28 10:39:47;;;;;;;7.82;4.18;;;26.50;99.90;;;;;;5045329;28;20287;-72
2023/05/28 10:42:16;;;;;;;9.60;4.60;;;26.60;99.90;;;;;;5045748;28;20548;-73
2023/05/28 10:44:59;;;;;;;9.98;4.30;;;26.50;99.90;;;;;;5045258;28;20217;-73
2023/05/28 10:47:36;;;;;;;9.32;4.35;;;26.40;99.90;;;;;;5049285;28;20548;-73
2023/05/28 10:50:09;;;;;;;8.57;4.13;;;26.30;99.90;;;;;;5041871;28;20650;-73
2023/05/28 10:53:06;;;;;;;7.13;4.05;;;26.20;99.90;;;;;;5043107;28;20193;-72
2023/05/28 10:55:54;;;;;;;9.00;3.90;;;26.20;99.90;;;;;;5052495;28;20232;-72
2023/05/28 10:58:33;;;;;;;11.93;4.75;;;26.20;99.90;;;;;;5046817;28;20215;-72
2023/05/28 11:01:09;;;;;;;10.70;4.25;;;26.30;99.90;;;;;;5052958;28;20221;-73
2023/05/28 11:03:45;;;;;;;15.55;4.95;;;26.30;99.90;;;;;;5046600;28;20490;-73
2023/05/28 11:06:13;;;;;;;7.30;3.55;;;26.10;99.50;;;;;;5048948;28;20280;-72
2023/05/28 11:08:48;;;;;;;7.35;3.72;;;26.10;99.60;;;;;;5048709;28;20238;-72
2023/05/28 11:11:17;;;;;;;11.30;4.20;;;26.00;99.70;;;;;;5046391;28;20663;-73
2023/05/28 11:13:48;;;;;;;10.38;4.20;;;26.10;99.50;;;;;;5034873;28;20215;-73
2023/05/28 11:16:17;;;;;;;9.70;4.32;;;26.20;99.40;;;;;;5051032;28;20224;-73
2023/05/28 11:19:02;;;;;;;8.32;4.18;;;26.20;99.40;;;;;;5051370;28;20205;-73
2023/05/28 11:21:30;;;;;;;11.43;4.63;;;26.30;99.10;;;;;;5049219;28;20303;-73
2023/05/28 11:24:05;;;;;;;10.63;4.43;;;26.30;99.20;;;;;;5049081;28;20210;-74
2023/05/28 11:26:35;;;;;;;11.75;3.92;;;26.30;99.00;;;;;;5047407;28;20273;-72
2023/05/28 11:29:03;;;;;;;8.48;3.85;;;26.30;99.50;;;;;;5044854;28;20217;-73
2023/05/28 11:31:40;;;;;;;10.68;4.93;;;26.20;99.90;;;;;;5051859;28;20228;-73
2023/05/28 11:34:08;;;;;;;10.63;4.20;;;26.30;99.90;;;;;;5052627;28;20271;-74
2023/05/28 11:36:42;;;;;;;9.93;4.75;;;26.40;99.90;;;;;;5049013;28;20313;-72
2023/05/28 11:39:10;;;;;;;7.88;4.03;;;26.50;99.90;;;;;;5048694;28;20211;-73
2023/05/28 11:41:38;;;;;;;8.75;4.75;;;26.50;99.80;;;;;;5034367;28;20285;-74
2023/05/28 11:44:23;;;;;;;7.90;4.28;;;26.40;99.50;;;;;;5049093;28;20201;-73
2023/05/28 11:46:54;;;;;;;11.00;4.60;;;26.30;99.30;;;;;;5049812;28;20239;-75
2023/05/28 11:49:22;;;;;;;9.77;4.53;;;26.20;99.90;;;;;;5051740;28;20212;-73
2023/05/28 11:51:53;;;;;;;12.55;4.40;;;26.20;99.80;;;;;;5050929;28;20263;-72
2023/05/28 11:54:21;;;;;;;9.65;4.10;;;26.10;99.40;;;;;;5048172;28;20233;-74
2023/05/28 11:56:49;;;;;;;11.45;4.47;;;26.00;99.20;;;;;;5044018;28;20251;-72
2023/05/28 11:59:17;;;;;;;11.55;4.22;;;25.90;99.20;;;;;;5052197;28;20727;-74
2023/05/28 12:01:44;;;;;;;11.98;3.95;;;26.10;99.70;;;;;;5047143;28;20234;-74
2023/05/28 12:04:11;;;;;;;14.63;4.68;;;26.20;99.90;;;;;;5026300;28;20209;-73
2023/05/28 12:06:54;;;;;;;12.25;4.80;;;26.20;99.80;;;;;;5030187;28;20431;-73
2023/05/28 12:09:22;;;;;;;9.75;4.30;;;26.30;99.30;;;;;;5048537;28;20236;-72
2023/05/28 12:12:11;;;;;;;13.18;4.65;;;26.30;99.10;;;;;;5053761;28;20201;-73
2023/05/28 12:14:39;;;;;;;12.07;3.75;;;26.30;98.20;;;;;;5052222;28;20615;-73
2023/05/28 12:17:10;;;;;;;10.18;4.53;;;26.40;98.50;;;;;;5052998;28;20738;-73
2023/05/28 12:19:37;;;;;;;8.43;4.63;;;26.50;98.40;;;;;;5047455;28;20262;-73
2023/05/28 12:22:13;;;;;;;12.73;4.47;;;26.50;98.40;;;;;;5051615;28;20213;-73
2023/05/28 12:24:51;;;;;;;10.18;4.43;;;26.60;99.00;;;;;;5048093;28;20205;-73
2023/05/28 12:27:18;;;;;;;12.07;4.65;;;26.80;98.30;;;;;;5030066;28;20208;-73
2023/05/28 12:29:45;;;;;;;9.88;4.40;;;26.90;98.00;;;;;;5047459;28;20243;-74
2023/05/28 12:32:12;;;;;;;8.90;3.92;;;26.90;98.00;;;;;;5054704;28;20244;-72
2023/05/28 12:34:39;;;;;;;9.82;4.68;;;27.00;98.00;;;;;;5051469;28;20232;-72
2023/05/28 12:37:06;;;;;;;10.82;4.35;;;26.90;97.30;;;;;;5052094;28;20781;-73
2023/05/28 12:39:35;;;;;;;8.35;4.25;;;26.80;97.20;;;;;;5051486;28;20296;-72
2023/05/28 12:42:03;;;;;;;9.60;4.75;;;26.70;97.10;;;;;;5051968;28;20209;-72
2023/05/28 12:44:30;;;;;;;10.30;4.32;;;26.60;96.90;;;;;;5047023;28;20198;-74